createdAt,value
2019-02-04T00:01:17.046Z,1.74
2019-02-04T00:03:41.577Z,2.03
2019-02-04T00:06:06.245Z,2.18
2019-02-04T00:08:30.671Z,2.57
2019-02-04T00:10:55.072Z,2.34
2019-02-04T00:13:19.491Z,2.34
2019-02-04T00:15:44.113Z,2.24
2019-02-04T00:18:08.657Z,2.05
2019-02-04T00:20:33.138Z,1.73
2019-02-04T00:22:57.576Z,1.36
2019-02-04T00:25:21.971Z,1.41
2019-02-04T00:27:46.463Z,1.41
2019-02-04T00:30:16.686Z,1.23
2019-02-04T00:32:41.151Z,1.35
2019-02-04T00:35:06.318Z,1.28
2019-02-04T00:37:30.712Z,1.57
2019-02-04T00:39:55.136Z,1.48
2019-02-04T00:42:19.533Z,1.44
2019-02-04T00:44:43.956Z,1.07
2019-02-04T00:47:08.418Z,1.05
2019-02-04T00:49:32.847Z,1.23
2019-02-04T00:51:57.422Z,1.64
2019-02-04T00:54:21.845Z,1.79
2019-02-04T00:56:46.380Z,1.89
2019-02-04T00:59:10.801Z,1.84
2019-02-04T01:01:35.235Z,1.87
2019-02-04T01:03:59.712Z,1.93
2019-02-04T01:06:24.249Z,1.72
2019-02-04T01:08:49.678Z,2.09
2019-02-04T01:11:14.179Z,2.12
2019-02-04T01:13:40.501Z,1.98
2019-02-04T01:16:05.122Z,2.02
2019-02-04T01:18:29.488Z,1.80
2019-02-04T01:20:53.906Z,2.07
2019-02-04T01:23:18.301Z,2.08
2019-02-04T01:25:42.734Z,1.95
2019-02-04T01:28:07.130Z,1.87
2019-02-04T01:30:31.639Z,1.88
2019-02-04T01:32:56.118Z,1.55
2019-02-04T01:35:21.196Z,1.29
2019-02-04T01:37:45.664Z,1.61
2019-02-04T01:40:13.397Z,1.49
2019-02-04T01:42:37.894Z,1.15
2019-02-04T01:45:02.291Z,1.78
2019-02-04T01:47:26.715Z,1.90
2019-02-04T01:49:51.210Z,1.96
2019-02-04T01:52:15.635Z,1.72
2019-02-04T01:54:40.029Z,1.96
2019-02-04T01:57:04.459Z,1.81
2019-02-04T01:59:29.128Z,1.87
2019-02-04T02:01:53.566Z,1.99
2019-02-04T02:04:17.963Z,1.70
2019-02-04T02:06:42.392Z,1.43
2019-02-04T02:09:10.368Z,1.70
2019-02-04T02:11:34.876Z,1.70
2019-02-04T02:13:59.265Z,2.21
2019-02-04T02:16:23.675Z,1.74
2019-02-04T02:18:48.111Z,1.86
2019-02-04T02:21:12.515Z,1.64
2019-02-04T02:23:37.008Z,1.70
2019-02-04T02:26:01.481Z,1.81
2019-02-04T02:28:25.912Z,1.94
2019-02-04T02:30:50.327Z,1.92
2019-02-04T02:33:14.762Z,1.20
2019-02-04T02:35:39.152Z,1.57
2019-02-04T02:38:03.570Z,1.42
2019-02-04T02:40:30.615Z,1.30
2019-02-04T02:42:55.356Z,1.61
2019-02-04T02:45:19.853Z,1.35
2019-02-04T02:47:44.347Z,1.74
2019-02-04T02:50:11.523Z,1.92
2019-02-04T02:52:35.919Z,2.05
2019-02-04T02:55:00.366Z,2.11
2019-02-04T02:57:24.762Z,2.25
2019-02-04T02:59:49.197Z,2.22
2019-02-04T03:02:13.589Z,2.30
2019-02-04T03:04:38.012Z,2.24
2019-02-04T03:07:02.702Z,2.21
2019-02-04T03:09:27.090Z,2.10
2019-02-04T03:11:51.517Z,2.10
2019-02-04T03:14:15.922Z,1.99
2019-02-04T03:16:40.351Z,2.13
2019-02-04T03:19:04.986Z,2.06
2019-02-04T03:21:29.406Z,2.00
2019-02-04T03:23:53.880Z,1.63
2019-02-04T03:26:18.295Z,1.90
2019-02-04T03:28:42.977Z,1.94
2019-02-04T03:31:07.425Z,1.54
2019-02-04T03:33:31.837Z,1.81
2019-02-04T03:35:56.232Z,1.78
2019-02-04T03:38:20.644Z,1.67
2019-02-04T03:40:45.108Z,1.64
2019-02-04T03:43:09.527Z,1.38
2019-02-04T03:45:33.926Z,1.53
2019-02-04T03:48:06.940Z,1.75
2019-02-04T03:50:24.587Z,1.40
2019-02-04T03:52:49.290Z,1.48
2019-02-04T03:55:15.826Z,1.34
2019-02-04T03:57:40.323Z,1.35
2019-02-04T04:00:07.831Z,1.44
2019-02-04T04:02:32.325Z,1.61
2019-02-04T04:04:56.995Z,1.80
2019-02-04T04:07:21.475Z,1.65
2019-02-04T04:09:45.874Z,1.77
2019-02-04T04:12:10.572Z,1.76
2019-02-04T04:14:35.046Z,1.55
2019-02-04T04:16:59.442Z,1.62
2019-02-04T04:19:23.860Z,1.77
2019-02-04T04:21:48.265Z,1.70
2019-02-04T04:24:12.689Z,1.81
2019-02-04T04:26:37.168Z,1.85
2019-02-04T04:29:01.589Z,1.68
2019-02-04T04:31:25.993Z,1.64
2019-02-04T04:33:50.419Z,1.63
2019-02-04T04:36:15.071Z,1.60
2019-02-04T04:38:39.503Z,1.58
2019-02-04T04:41:04.071Z,1.48
2019-02-04T04:43:28.480Z,1.52
2019-02-04T04:45:52.879Z,1.72
2019-02-04T04:48:26.361Z,1.67
2019-02-04T04:50:43.476Z,1.23
2019-02-04T04:53:07.954Z,1.13
2019-02-04T04:55:32.458Z,1.33
2019-02-04T04:57:56.931Z,0.82
2019-02-04T05:00:24.678Z,1.00
2019-02-04T05:02:49.151Z,1.01
2019-02-04T05:05:14.627Z,1.56
2019-02-04T05:07:39.105Z,1.21
2019-02-04T05:10:04.329Z,1.57
2019-02-04T05:12:28.734Z,1.36
2019-02-04T05:14:53.178Z,1.09
2019-02-04T05:17:17.592Z,0.94
2019-02-04T05:19:42.261Z,1.09
2019-02-04T05:22:11.166Z,1.27
2019-02-04T05:24:35.592Z,1.29
2019-02-04T05:27:00.005Z,1.12
2019-02-04T05:29:24.482Z,1.24
2019-02-04T05:31:48.910Z,0.75
2019-02-04T05:34:13.317Z,1.10
2019-02-04T05:36:37.767Z,1.00
2019-02-04T05:39:02.201Z,1.02
2019-02-04T05:41:26.754Z,0.93
2019-02-04T05:43:51.586Z,0.71
2019-02-04T05:46:16.015Z,1.02
2019-02-04T05:48:49.034Z,0.90
2019-02-04T05:51:06.552Z,0.92
2019-02-04T05:53:30.963Z,0.86
2019-02-04T05:55:55.473Z,1.08
2019-02-04T05:58:19.883Z,1.06
2019-02-04T06:00:45.668Z,0.71
2019-02-04T06:03:10.180Z,0.75
2019-02-04T06:05:34.653Z,0.88
2019-02-04T06:07:59.235Z,0.87
2019-02-04T06:10:23.716Z,0.27
2019-02-04T06:12:48.224Z,0.87
2019-02-04T06:15:16.600Z,0.86
2019-02-04T06:17:41.032Z,0.76
2019-02-04T06:20:14.056Z,0.79
2019-02-04T06:22:38.508Z,0.62
2019-02-04T06:25:03.565Z,0.51
2019-02-04T06:27:28.090Z,0.76
2019-02-04T06:29:55.617Z,0.81
2019-02-04T06:32:20.142Z,0.93
2019-02-04T06:34:44.551Z,0.55
2019-02-04T06:37:08.956Z,0.77
2019-02-04T06:39:33.388Z,0.94
2019-02-04T06:41:57.856Z,0.71
2019-02-04T06:44:22.290Z,1.06
2019-02-04T06:46:46.775Z,1.03
2019-02-04T06:49:12.665Z,0.95
2019-02-04T06:51:37.160Z,1.07
2019-02-04T06:54:01.588Z,1.10
2019-02-04T06:56:26.069Z,0.79
2019-02-04T06:58:50.493Z,0.83
2019-02-04T07:01:14.959Z,0.75
2019-02-04T07:03:39.418Z,0.76
2019-02-04T07:06:03.910Z,0.99
2019-02-04T07:08:28.472Z,0.75
2019-02-04T07:10:53.009Z,0.84
2019-02-04T07:13:17.661Z,0.83
2019-02-04T07:15:42.099Z,0.97
2019-02-04T07:18:06.579Z,0.85
2019-02-04T07:20:31.088Z,1.14
2019-02-04T07:22:55.572Z,1.09
2019-02-04T07:25:20.433Z,0.96
2019-02-04T07:27:44.902Z,0.81
2019-02-04T07:30:26.321Z,0.95
2019-02-04T07:32:51.036Z,0.85
2019-02-04T07:35:17.408Z,1.10
2019-02-04T07:37:41.815Z,1.47
2019-02-04T07:40:09.308Z,1.28
2019-02-04T07:42:33.723Z,1.39
2019-02-04T07:44:58.159Z,1.34
2019-02-04T07:47:25.613Z,1.51
2019-02-04T07:49:50.107Z,1.67
2019-02-04T07:52:14.545Z,1.24
2019-02-04T07:54:39.229Z,1.79
2019-02-04T07:57:03.658Z,1.65
2019-02-04T07:59:28.071Z,1.48
2019-02-04T08:01:52.529Z,1.30
2019-02-04T08:04:16.949Z,1.55
2019-02-04T08:06:41.370Z,1.49
2019-02-04T08:09:08.689Z,1.88
2019-02-04T08:11:33.151Z,1.61
2019-02-04T08:13:57.652Z,1.65
2019-02-04T08:16:22.537Z,1.47
2019-02-04T08:18:48.598Z,1.62
2019-02-04T08:21:13.037Z,1.90
2019-02-04T08:23:37.462Z,1.64
2019-02-04T08:26:02.080Z,1.56
2019-02-04T08:28:26.477Z,1.49
2019-02-04T08:30:50.899Z,1.75
2019-02-04T08:33:15.341Z,1.51
2019-02-04T08:35:39.761Z,1.69
2019-02-04T08:38:04.415Z,1.42
2019-02-04T08:40:29.467Z,1.61
2019-02-04T08:42:53.977Z,1.96
2019-02-04T08:45:18.475Z,1.85
2019-02-04T08:47:43.159Z,1.91
2019-02-04T08:50:10.625Z,2.20
2019-02-04T08:52:35.057Z,2.42
2019-02-04T08:54:59.508Z,2.25
2019-02-04T08:57:24.152Z,2.16
2019-02-04T08:59:48.547Z,2.46
2019-02-04T09:02:13.021Z,2.51
2019-02-04T09:04:37.458Z,2.25
2019-02-04T09:07:02.389Z,2.83
2019-02-04T09:09:26.828Z,2.56
2019-02-04T09:11:51.335Z,2.53
2019-02-04T09:14:15.792Z,2.59
2019-02-04T09:16:40.210Z,2.69
2019-02-04T09:19:04.994Z,2.85
2019-02-04T09:21:29.477Z,2.80
2019-02-04T09:23:53.897Z,2.71
2019-02-04T09:26:18.384Z,3.04
2019-02-04T09:28:42.833Z,3.11
2019-02-04T09:31:08.134Z,3.25
2019-02-04T09:33:32.911Z,3.33
2019-02-04T09:35:57.321Z,3.23
2019-02-04T09:38:21.818Z,3.46
2019-02-04T09:40:46.408Z,3.57
2019-02-04T09:43:11.321Z,3.72
2019-02-04T09:45:35.873Z,4.01
2019-02-04T09:48:00.363Z,3.55
2019-02-04T09:50:27.849Z,4.04
2019-02-04T09:52:52.267Z,3.91
2019-02-04T09:55:21.686Z,3.67
2019-02-04T09:57:46.080Z,4.06
2019-02-04T10:00:16.631Z,3.91
2019-02-04T10:02:41.039Z,4.11
2019-02-04T10:05:09.019Z,4.47
2019-02-04T10:07:33.436Z,4.20
2019-02-04T10:09:59.042Z,4.39
2019-02-04T10:12:23.492Z,4.85
2019-02-04T10:14:48.399Z,4.76
2019-02-04T10:17:12.839Z,4.83
2019-02-04T10:19:37.212Z,4.72
2019-02-04T10:22:01.772Z,4.78
2019-02-04T10:24:26.170Z,5.01
2019-02-04T10:26:50.701Z,4.92
2019-02-04T10:29:15.154Z,5.54
2019-02-04T10:31:39.566Z,5.42
2019-02-04T10:34:04.108Z,5.79
2019-02-04T10:36:28.679Z,5.42
2019-02-04T10:38:53.466Z,5.55
2019-02-04T10:41:17.943Z,6.06
2019-02-04T10:43:42.327Z,6.19
2019-02-04T10:46:06.957Z,6.73
2019-02-04T10:48:31.473Z,6.34
2019-02-04T10:50:56.092Z,6.26
2019-02-04T10:53:20.507Z,6.02
2019-02-04T10:55:44.978Z,5.82
2019-02-04T10:58:11.595Z,5.89
2019-02-04T11:00:36.539Z,6.22
2019-02-04T11:03:01.333Z,6.59
2019-02-04T11:05:28.851Z,6.21
2019-02-04T11:07:53.482Z,6.19
2019-02-04T11:10:20.900Z,6.31
2019-02-04T11:12:45.477Z,6.36
2019-02-04T11:15:12.780Z,7.01
2019-02-04T11:17:37.324Z,7.17
2019-02-04T11:20:01.814Z,6.45
2019-02-04T11:22:26.602Z,6.95
2019-02-04T11:24:51.220Z,7.69
2019-02-04T11:27:15.706Z,7.47
2019-02-04T11:29:40.086Z,7.95
2019-02-04T11:32:05.296Z,8.62
2019-02-04T11:34:29.844Z,8.80
2019-02-04T11:36:54.250Z,9.09
2019-02-04T11:39:18.700Z,8.40
2019-02-04T11:41:43.223Z,8.71
2019-02-04T11:44:07.720Z,9.54
2019-02-04T11:46:32.407Z,9.01
2019-02-04T11:48:57.042Z,9.68
2019-02-04T11:51:21.434Z,8.56
2019-02-04T11:53:45.863Z,8.81
2019-02-04T11:56:10.263Z,8.76
2019-02-04T11:58:34.726Z,9.02
2019-02-04T12:00:59.158Z,8.84
2019-02-04T12:03:23.638Z,8.80
2019-02-04T12:05:48.195Z,9.78
2019-02-04T12:08:13.121Z,8.94
2019-02-04T12:10:43.737Z,9.28
2019-02-04T12:13:08.273Z,8.76
2019-02-04T12:15:32.869Z,8.75
2019-02-04T12:17:57.335Z,8.21
2019-02-04T12:20:21.842Z,7.43
2019-02-04T12:22:48.142Z,7.76
2019-02-04T12:25:15.455Z,7.97
2019-02-04T12:27:39.870Z,7.32
2019-02-04T12:30:10.138Z,7.88
2019-02-04T12:32:34.575Z,7.75
2019-02-04T12:34:58.990Z,6.81
2019-02-04T12:37:23.560Z,7.39
2019-02-04T12:39:48.002Z,7.63
2019-02-04T12:42:12.581Z,6.96
2019-02-04T12:44:37.057Z,7.27
2019-02-04T12:47:01.549Z,7.36
2019-02-04T12:49:25.945Z,6.96
2019-02-04T12:51:50.592Z,7.10
2019-02-04T12:54:15.382Z,7.59
2019-02-04T12:56:39.880Z,8.57
2019-02-04T12:59:04.527Z,7.87
2019-02-04T13:01:28.959Z,8.11
2019-02-04T13:03:53.370Z,8.33
2019-02-04T13:06:17.785Z,9.11
2019-02-04T13:08:42.219Z,9.00
2019-02-04T13:11:06.759Z,8.77
2019-02-04T13:13:31.263Z,7.91
2019-02-04T13:15:55.654Z,7.82
2019-02-04T13:18:20.477Z,7.94
2019-02-04T13:20:45.011Z,7.56
2019-02-04T13:23:09.888Z,7.67
2019-02-04T13:25:34.297Z,7.75
2019-02-04T13:27:58.898Z,7.22
2019-02-04T13:30:25.747Z,7.33
2019-02-04T13:32:50.252Z,6.52
2019-02-04T13:35:15.631Z,7.02
2019-02-04T13:37:40.040Z,6.86
2019-02-04T13:40:10.534Z,6.55
2019-02-04T13:42:35.018Z,6.60
2019-02-04T13:44:59.617Z,6.84
2019-02-04T13:47:24.180Z,6.80
2019-02-04T13:49:48.640Z,7.41
2019-02-04T13:52:15.224Z,6.87
2019-02-04T13:54:39.334Z,7.29
2019-02-04T13:57:03.841Z,7.25
2019-02-04T13:59:28.279Z,6.90
2019-02-04T14:01:53.059Z,6.75
2019-02-04T14:04:17.549Z,6.39
2019-02-04T14:06:42.133Z,6.63
2019-02-04T14:09:09.597Z,6.48
2019-02-04T14:11:34.202Z,6.71
2019-02-04T14:13:58.689Z,7.04
2019-02-04T14:16:23.258Z,6.76
2019-02-04T14:18:47.689Z,6.67
2019-02-04T14:21:12.208Z,6.49
2019-02-04T14:23:36.890Z,6.94
2019-02-04T14:26:01.359Z,6.48
2019-02-04T14:28:25.915Z,6.37
2019-02-04T14:30:50.607Z,6.66
2019-02-04T14:33:15.089Z,6.82
2019-02-04T14:35:39.585Z,6.53
2019-02-04T14:38:05.288Z,7.12
2019-02-04T14:40:29.838Z,6.80
2019-02-04T14:43:12.203Z,6.76
2019-02-04T14:45:39.649Z,6.37
2019-02-04T14:48:07.133Z,6.51
2019-02-04T14:50:40.284Z,6.61
2019-02-04T14:53:16.370Z,6.73
2019-02-04T14:55:49.803Z,6.87
2019-02-04T14:58:23.180Z,6.56
2019-02-04T15:01:17.711Z,6.69
2019-02-04T15:04:13.478Z,6.40
2019-02-04T15:06:52.842Z,6.75
2019-02-04T15:09:35.487Z,6.51
2019-02-04T15:12:20.195Z,6.57
2019-02-04T15:15:11.578Z,6.63
2019-02-04T15:17:36.685Z,6.19
2019-02-04T15:20:26.567Z,6.37
2019-02-04T15:23:02.698Z,6.05
2019-02-04T15:25:38.799Z,6.22
2019-02-04T15:28:08.924Z,6.02
2019-02-04T15:30:52.701Z,6.39
2019-02-04T15:33:20.346Z,6.40
2019-02-04T15:35:47.824Z,5.68
2019-02-04T15:38:21.080Z,5.80
2019-02-04T15:40:54.363Z,5.98
2019-02-04T15:43:27.418Z,5.56
2019-02-04T15:46:03.786Z,5.50
2019-02-04T15:48:34.146Z,5.63
2019-02-04T15:51:16.582Z,5.70
2019-02-04T15:53:41.048Z,5.58
2019-02-04T15:56:06.210Z,5.82
2019-02-04T15:58:30.634Z,5.74
2019-02-04T16:00:55.132Z,5.46
2019-02-04T16:03:19.718Z,5.52
2019-02-04T16:05:44.207Z,5.32
2019-02-04T16:08:08.699Z,5.17
2019-02-04T16:10:33.180Z,5.08
2019-02-04T16:12:57.616Z,5.77
2019-02-04T16:15:22.186Z,5.38
2019-02-04T16:17:46.859Z,5.30
2019-02-04T16:20:17.176Z,5.58
2019-02-04T16:22:41.639Z,5.10
2019-02-04T16:25:09.081Z,5.29
2019-02-04T16:27:33.485Z,5.20
2019-02-04T16:29:57.984Z,5.09
2019-02-04T16:32:22.435Z,5.30
2019-02-04T16:34:46.890Z,5.09
2019-02-04T16:37:11.483Z,5.43
2019-02-04T16:39:35.917Z,5.39
2019-02-04T16:42:00.609Z,5.08
2019-02-04T16:44:25.188Z,5.24
2019-02-04T16:46:49.593Z,5.24
2019-02-04T16:49:14.039Z,5.09
2019-02-04T16:51:38.520Z,5.17
2019-02-04T16:54:03.110Z,5.15
2019-02-04T16:56:27.591Z,4.96
2019-02-04T16:58:52.128Z,4.95
2019-02-04T17:01:16.544Z,5.18
2019-02-04T17:03:41.133Z,5.51
2019-02-04T17:06:05.691Z,5.35
2019-02-04T17:08:30.316Z,5.14
2019-02-04T17:10:54.827Z,5.03
2019-02-04T17:13:19.229Z,5.22
2019-02-04T17:15:43.671Z,5.64
2019-02-04T17:18:08.144Z,5.01
2019-02-04T17:20:33.202Z,5.20
2019-02-04T17:22:57.679Z,5.29
2019-02-04T17:25:22.261Z,5.07
2019-02-04T17:27:46.740Z,5.31
2019-02-04T17:30:25.206Z,5.06
2019-02-04T17:32:49.725Z,5.20
2019-02-04T17:35:14.283Z,5.61
2019-02-04T17:37:38.832Z,5.18
2019-02-04T17:40:03.288Z,5.11
2019-02-04T17:42:27.815Z,5.20
2019-02-04T17:44:52.234Z,4.97
2019-02-04T17:47:16.754Z,5.23
2019-02-04T17:49:41.278Z,5.28
2019-02-04T17:52:06.064Z,5.45
2019-02-04T17:54:30.443Z,5.56
2019-02-04T17:56:54.990Z,5.24
2019-02-04T17:59:19.374Z,5.59
2019-02-04T18:01:43.803Z,5.31
2019-02-04T18:04:08.269Z,5.40
2019-02-04T18:06:32.809Z,5.26
2019-02-04T18:08:57.314Z,5.23
2019-02-04T18:11:21.801Z,5.20
2019-02-04T18:13:46.307Z,5.51
2019-02-04T18:16:11.031Z,5.26
2019-02-04T18:18:35.482Z,5.17
2019-02-04T18:20:59.973Z,4.95
2019-02-04T18:23:24.471Z,4.87
2019-02-04T18:25:48.953Z,4.92
2019-02-04T18:28:13.471Z,5.11
2019-02-04T18:30:37.948Z,5.13
2019-02-04T18:33:02.454Z,4.91
2019-02-04T18:35:27.109Z,5.29
2019-02-04T18:37:51.511Z,5.01
2019-02-04T18:40:20.130Z,5.17
2019-02-04T18:42:44.703Z,5.51
2019-02-04T18:45:12.205Z,5.27
2019-02-04T18:47:36.608Z,5.22
2019-02-04T18:50:01.217Z,5.60
2019-02-04T18:52:25.947Z,5.33
2019-02-04T18:54:50.450Z,5.38
2019-02-04T18:57:15.168Z,5.27
2019-02-04T18:59:39.861Z,5.24
2019-02-04T19:02:04.810Z,5.50
2019-02-04T19:04:29.227Z,5.46
2019-02-04T19:06:53.776Z,5.39
2019-02-04T19:09:18.216Z,5.13
2019-02-04T19:11:42.698Z,5.27
2019-02-04T19:14:07.394Z,5.45
2019-02-04T19:16:31.949Z,5.44
2019-02-04T19:18:56.360Z,5.28
2019-02-04T19:21:21.175Z,5.48
2019-02-04T19:23:45.653Z,5.42
2019-02-04T19:26:10.199Z,5.64
2019-02-04T19:28:34.743Z,5.42
2019-02-04T19:31:02.593Z,5.48
2019-02-04T19:33:27.062Z,5.30
2019-02-04T19:35:51.713Z,5.16
2019-02-04T19:38:16.203Z,5.04
2019-02-04T19:40:40.781Z,5.19
2019-02-04T19:43:05.436Z,5.24
2019-02-04T19:45:30.196Z,5.35
2019-02-04T19:47:54.675Z,5.30
2019-02-04T19:50:24.755Z,5.30
2019-02-04T19:52:49.301Z,5.43
2019-02-04T19:55:14.075Z,5.39
2019-02-04T19:57:38.499Z,5.29
2019-02-04T20:00:03.174Z,4.86
2019-02-04T20:02:27.682Z,5.10
2019-02-04T20:04:52.175Z,5.21
2019-02-04T20:07:16.874Z,5.19
2019-02-04T20:09:41.355Z,5.27
2019-02-04T20:12:06.153Z,5.34
2019-02-04T20:14:30.654Z,5.09
2019-02-04T20:16:55.125Z,5.39
2019-02-04T20:19:19.606Z,5.57
2019-02-04T20:21:45.620Z,5.03
2019-02-04T20:24:10.164Z,5.16
2019-02-04T20:26:34.626Z,5.11
2019-02-04T20:28:59.046Z,5.45
2019-02-04T20:31:23.454Z,5.42
2019-02-04T20:33:47.908Z,5.78
2019-02-04T20:36:12.406Z,5.45
2019-02-04T20:38:36.918Z,5.43
2019-02-04T20:41:01.476Z,5.14
2019-02-04T20:43:25.931Z,5.26
2019-02-04T20:45:50.348Z,5.41
2019-02-04T20:48:14.926Z,5.50
2019-02-04T20:50:42.133Z,5.37
2019-02-04T20:53:06.724Z,5.57
2019-02-04T20:55:31.659Z,5.45
2019-02-04T20:57:56.513Z,5.55
2019-02-04T21:00:31.135Z,5.60
2019-02-04T21:02:55.545Z,5.63
2019-02-04T21:05:20.107Z,5.51
2019-02-04T21:07:44.605Z,5.49
2019-02-04T21:10:12.107Z,5.28
2019-02-04T21:12:36.542Z,5.46
2019-02-04T21:15:01.033Z,5.30
2019-02-04T21:17:27.445Z,5.40
2019-02-04T21:19:51.877Z,5.50
2019-02-04T21:22:16.364Z,5.60
2019-02-04T21:24:40.840Z,5.53
2019-02-04T21:27:05.577Z,5.56
2019-02-04T21:29:30.118Z,5.24
2019-02-04T21:31:54.514Z,5.30
2019-02-04T21:34:18.921Z,5.80
2019-02-04T21:36:43.429Z,5.72
2019-02-04T21:39:08.294Z,5.49
2019-02-04T21:41:33.002Z,5.67
2019-02-04T21:43:57.506Z,5.56
2019-02-04T21:46:22.005Z,5.49
2019-02-04T21:48:46.428Z,5.37
2019-02-04T21:51:10.928Z,5.66
2019-02-04T21:53:35.333Z,5.57
2019-02-04T21:55:59.752Z,5.64
2019-02-04T21:58:24.158Z,5.37
2019-02-04T22:00:48.673Z,5.36
2019-02-04T22:03:13.072Z,5.51
2019-02-04T22:05:37.471Z,5.79
2019-02-04T22:08:02.235Z,5.92
2019-02-04T22:10:28.484Z,5.81
2019-02-04T22:12:52.996Z,5.72
2019-02-04T22:15:17.540Z,5.21
2019-02-04T22:17:42.048Z,5.45
2019-02-04T22:20:09.772Z,5.70
2019-02-04T22:22:34.238Z,6.12
2019-02-04T22:24:58.640Z,5.91
2019-02-04T22:27:23.235Z,5.76
2019-02-04T22:29:47.636Z,5.54
2019-02-04T22:32:12.206Z,5.35
2019-02-04T22:34:36.882Z,5.39
2019-02-04T22:37:01.357Z,5.47
2019-02-04T22:39:25.802Z,5.90
2019-02-04T22:41:50.200Z,6.07
2019-02-04T22:44:14.638Z,5.70
2019-02-04T22:46:39.050Z,6.03
2019-02-04T22:49:03.496Z,5.94
2019-02-04T22:51:27.881Z,5.84
2019-02-04T22:53:52.398Z,5.93
2019-02-04T22:56:16.871Z,6.02
2019-02-04T22:58:41.574Z,5.81
2019-02-04T23:01:14.683Z,5.80
2019-02-04T23:03:39.170Z,5.75
2019-02-04T23:06:03.720Z,5.66
2019-02-04T23:08:28.177Z,5.54
2019-02-04T23:10:52.720Z,5.66
2019-02-04T23:13:17.189Z,5.41
2019-02-04T23:15:41.840Z,5.60
2019-02-04T23:18:06.670Z,5.30
2019-02-04T23:20:31.162Z,5.59
2019-02-04T23:22:55.641Z,5.16
2019-02-04T23:25:20.071Z,5.42
2019-02-04T23:27:44.491Z,5.50
2019-02-04T23:30:15.247Z,5.31
2019-02-04T23:32:39.642Z,5.18
2019-02-04T23:35:04.630Z,5.16
2019-02-04T23:37:29.115Z,4.97
2019-02-04T23:39:53.819Z,4.90
2019-02-04T23:42:18.370Z,5.10
2019-02-04T23:44:42.865Z,4.95
2019-02-04T23:47:07.272Z,5.32
2019-02-04T23:49:31.672Z,5.32
2019-02-04T23:51:56.183Z,4.98
2019-02-04T23:54:21.355Z,5.22
2019-02-04T23:56:45.778Z,5.17
2019-02-04T23:59:10.320Z,5.20
